createdAt,value
2019-02-23T00:19:44.573Z,20.20
2019-02-23T00:32:51.721Z,20.20
2019-02-23T00:45:59.027Z,20.20
2019-02-23T01:12:09.411Z,20.10
2019-02-23T01:25:16.533Z,20.10
2019-02-23T01:38:23.689Z,20.10
2019-02-23T01:51:30.828Z,20.10
2019-02-23T02:04:37.967Z,20.10
2019-02-23T02:17:45.113Z,20.00
2019-02-23T02:31:09.213Z,20.00
2019-02-23T02:44:31.970Z,20.00
2019-02-23T02:57:54.835Z,20.00
2019-02-23T03:11:17.637Z,20.00
2019-02-23T03:24:40.470Z,20.00
2019-02-23T03:38:03.295Z,20.00
2019-02-23T03:51:26.090Z,20.00
2019-02-23T04:04:48.877Z,20.00
2019-02-23T04:18:11.730Z,20.00
2019-02-23T04:31:34.498Z,19.90
2019-02-23T04:44:57.327Z,19.90
2019-02-23T04:58:20.223Z,19.90
2019-02-23T05:11:42.973Z,19.90
2019-02-23T05:25:05.815Z,19.90
2019-02-23T05:38:28.605Z,19.90
2019-02-23T05:51:51.451Z,19.90
2019-02-23T06:05:14.210Z,19.80
2019-02-23T06:18:37.060Z,19.80
2019-02-23T06:31:59.840Z,19.80
2019-02-23T06:45:22.676Z,19.80
2019-02-23T06:58:45.500Z,19.90
2019-02-23T07:12:08.304Z,19.30
2019-02-23T07:25:31.148Z,19.70
2019-02-23T07:38:53.942Z,19.80
2019-02-23T07:52:25.730Z,20.00
2019-02-23T08:05:39.573Z,20.00
2019-02-23T08:19:02.395Z,20.10
2019-02-23T08:32:25.196Z,20.10
2019-02-23T08:45:48.022Z,20.10
2019-02-23T08:59:10.851Z,20.10
2019-02-23T09:12:33.684Z,20.10
2019-02-23T09:25:57.852Z,20.10
2019-02-23T09:39:19.294Z,20.20
2019-02-23T09:52:42.077Z,18.90
2019-02-23T10:06:04.892Z,18.80
2019-02-23T10:19:27.716Z,19.70
2019-02-23T10:32:50.544Z,20.00
2019-02-23T10:46:13.350Z,20.00
2019-02-23T10:59:36.168Z,20.00
2019-02-23T11:12:59.009Z,20.10
2019-02-23T11:26:21.896Z,20.00
2019-02-23T11:39:44.615Z,20.00
2019-02-23T11:53:07.466Z,20.00
2019-02-23T12:06:30.302Z,20.00
2019-02-23T12:19:55.257Z,20.00
2019-02-23T12:33:15.898Z,20.00
2019-02-23T12:46:38.745Z,20.00
2019-02-23T13:00:01.530Z,20.10
2019-02-23T13:13:24.363Z,20.10
2019-02-23T13:39:48.807Z,20.10
2019-02-23T13:52:56.046Z,20.10
2019-02-23T14:06:03.240Z,20.10
2019-02-23T14:19:10.360Z,20.10
2019-02-23T14:32:17.544Z,20.30
2019-02-23T14:45:24.702Z,20.30
2019-02-23T15:11:50.199Z,20.30
2019-02-23T15:24:57.348Z,20.30
2019-02-23T15:38:04.505Z,20.20
2019-02-23T15:51:11.808Z,20.20
2019-02-23T16:04:18.874Z,20.20
2019-02-23T16:44:24.442Z,20.20
2019-02-23T16:57:31.575Z,20.20
2019-02-23T17:10:38.709Z,20.10
2019-02-23T17:23:45.850Z,20.10
2019-02-23T17:36:52.964Z,20.10
2019-02-23T17:50:00.112Z,20.10
2019-02-23T18:03:24.144Z,20.00
2019-02-23T18:16:46.987Z,20.10
2019-02-23T18:30:11.308Z,20.10
2019-02-23T18:43:32.577Z,20.20
2019-02-23T18:56:55.434Z,20.20
2019-02-23T19:10:18.227Z,20.10
2019-02-23T19:23:41.022Z,20.20
2019-02-23T19:37:03.887Z,20.10
2019-02-23T19:50:26.644Z,20.20
2019-02-23T20:03:49.466Z,20.20
2019-02-23T20:17:12.304Z,20.20
2019-02-23T20:30:35.148Z,20.10
2019-02-23T20:43:57.912Z,20.10
2019-02-23T20:57:20.720Z,20.10
2019-02-23T21:10:43.562Z,20.10
2019-02-23T21:24:06.376Z,20.10
2019-02-23T21:37:29.196Z,20.10
2019-02-23T21:50:52.038Z,20.10
2019-02-23T22:04:14.887Z,20.00
2019-02-23T22:17:37.620Z,20.00
2019-02-23T22:31:00.548Z,20.10
2019-02-23T22:44:23.314Z,20.10
2019-02-23T22:57:46.120Z,20.10
2019-02-23T23:11:08.923Z,20.10
2019-02-23T23:24:31.728Z,20.00
2019-02-23T23:37:54.537Z,20.10
2019-02-23T23:51:17.370Z,20.00
